sensor_id;sensor_type;location;lat;lon;timestamp;P1;durP1;ratioP1;P2;durP2;ratioP2
32038;SDS011;18549;42.286;22.688;2022-09-11T00:01:56;8.65;;;2.42;;
32038;SDS011;18549;42.286;22.688;2022-09-11T00:04:24;6.93;;;2.65;;
32038;SDS011;18549;42.286;22.688;2022-09-11T00:06:53;10.90;;;3.55;;
32038;SDS011;18549;42.286;22.688;2022-09-11T00:09:20;6.20;;;2.20;;
32038;SDS011;18549;42.286;22.688;2022-09-11T00:11:48;8.82;;;2.53;;
32038;SDS011;18549;42.286;22.688;2022-09-11T00:14:15;10.27;;;5.65;;
32038;SDS011;18549;42.286;22.688;2022-09-11T00:16:44;10.40;;;7.10;;
32038;SDS011;18549;42.286;22.688;2022-09-11T00:19:17;12.95;;;4.85;;
32038;SDS011;18549;42.286;22.688;2022-09-11T00:21:46;7.57;;;2.40;;
32038;SDS011;18549;42.286;22.688;2022-09-11T00:24:14;10.07;;;3.58;;
32038;SDS011;18549;42.286;22.688;2022-09-11T00:26:42;4.85;;;2.40;;
32038;SDS011;18549;42.286;22.688;2022-09-11T00:29:11;5.00;;;2.22;;
32038;SDS011;18549;42.286;22.688;2022-09-11T00:31:39;5.22;;;2.53;;
32038;SDS011;18549;42.286;22.688;2022-09-11T00:34:06;4.70;;;1.80;;
32038;SDS011;18549;42.286;22.688;2022-09-11T00:36:36;5.12;;;2.22;;
32038;SDS011;18549;42.286;22.688;2022-09-11T00:39:05;4.12;;;2.25;;
32038;SDS011;18549;42.286;22.688;2022-09-11T00:41:34;4.25;;;2.33;;
32038;SDS011;18549;42.286;22.688;2022-09-11T00:44:03;2.33;;;1.45;;
32038;SDS011;18549;42.286;22.688;2022-09-11T00:46:34;4.35;;;2.40;;
32038;SDS011;18549;42.286;22.688;2022-09-11T00:49:09;9.45;;;2.10;;
32038;SDS011;18549;42.286;22.688;2022-09-11T00:51:45;4.68;;;2.00;;
32038;SDS011;18549;42.286;22.688;2022-09-11T00:54:18;8.85;;;2.00;;
32038;SDS011;18549;42.286;22.688;2022-09-11T00:56:48;8.70;;;2.47;;
32038;SDS011;18549;42.286;22.688;2022-09-11T00:59:15;16.17;;;3.33;;
32038;SDS011;18549;42.286;22.688;2022-09-11T01:01:45;11.90;;;3.78;;
32038;SDS011;18549;42.286;22.688;2022-09-11T01:04:13;13.18;;;3.12;;
32038;SDS011;18549;42.286;22.688;2022-09-11T01:06:41;7.20;;;2.97;;
32038;SDS011;18549;42.286;22.688;2022-09-11T01:09:12;11.98;;;2.92;;
32038;SDS011;18549;42.286;22.688;2022-09-11T01:11:41;7.10;;;2.47;;
32038;SDS011;18549;42.286;22.688;2022-09-11T01:14:18;7.45;;;2.72;;
32038;SDS011;18549;42.286;22.688;2022-09-11T01:16:58;15.55;;;3.05;;
32038;SDS011;18549;42.286;22.688;2022-09-11T01:19:35;9.25;;;2.80;;
32038;SDS011;18549;42.286;22.688;2022-09-11T01:22:19;4.18;;;2.62;;
32038;SDS011;18549;42.286;22.688;2022-09-11T01:27:53;8.85;;;2.95;;
32038;SDS011;18549;42.286;22.688;2022-09-11T01:30:22;12.82;;;2.70;;
32038;SDS011;18549;42.286;22.688;2022-09-11T01:35:54;7.72;;;2.80;;
32038;SDS011;18549;42.286;22.688;2022-09-11T01:38:29;7.68;;;3.12;;
32038;SDS011;18549;42.286;22.688;2022-09-11T01:41:02;8.30;;;2.60;;
32038;SDS011;18549;42.286;22.688;2022-09-11T01:43:42;4.00;;;2.53;;
32038;SDS011;18549;42.286;22.688;2022-09-11T01:46:16;10.75;;;2.95;;
32038;SDS011;18549;42.286;22.688;2022-09-11T01:48:48;9.82;;;2.95;;
32038;SDS011;18549;42.286;22.688;2022-09-11T01:51:19;6.30;;;2.92;;
32038;SDS011;18549;42.286;22.688;2022-09-11T01:53:51;16.05;;;3.08;;
32038;SDS011;18549;42.286;22.688;2022-09-11T01:56:20;4.95;;;2.30;;
32038;SDS011;18549;42.286;22.688;2022-09-11T01:58:55;2.78;;;2.17;;
32038;SDS011;18549;42.286;22.688;2022-09-11T02:01:27;6.97;;;2.42;;
32038;SDS011;18549;42.286;22.688;2022-09-11T02:03:59;6.43;;;2.80;;
32038;SDS011;18549;42.286;22.688;2022-09-11T02:06:33;3.65;;;2.20;;
32038;SDS011;18549;42.286;22.688;2022-09-11T02:09:07;5.97;;;2.42;;
32038;SDS011;18549;42.286;22.688;2022-09-11T02:11:36;7.15;;;2.50;;
32038;SDS011;18549;42.286;22.688;2022-09-11T02:14:10;6.28;;;2.42;;
32038;SDS011;18549;42.286;22.688;2022-09-11T02:16:46;7.05;;;2.45;;
32038;SDS011;18549;42.286;22.688;2022-09-11T02:19:16;6.28;;;2.58;;
32038;SDS011;18549;42.286;22.688;2022-09-11T02:21:45;8.02;;;2.87;;
32038;SDS011;18549;42.286;22.688;2022-09-11T02:24:13;8.75;;;2.55;;
32038;SDS011;18549;42.286;22.688;2022-09-11T02:26:42;5.47;;;2.47;;
32038;SDS011;18549;42.286;22.688;2022-09-11T02:29:14;9.63;;;2.15;;
32038;SDS011;18549;42.286;22.688;2022-09-11T02:31:42;6.68;;;2.00;;
32038;SDS011;18549;42.286;22.688;2022-09-11T02:34:10;4.05;;;1.87;;
32038;SDS011;18549;42.286;22.688;2022-09-11T02:36:45;4.50;;;2.53;;
32038;SDS011;18549;42.286;22.688;2022-09-11T02:39:35;9.98;;;2.37;;
32038;SDS011;18549;42.286;22.688;2022-09-11T02:45:08;7.70;;;2.50;;
32038;SDS011;18549;42.286;22.688;2022-09-11T02:47:47;5.75;;;2.22;;
32038;SDS011;18549;42.286;22.688;2022-09-11T02:50:27;11.00;;;2.40;;
32038;SDS011;18549;42.286;22.688;2022-09-11T02:53:00;7.93;;;2.30;;
32038;SDS011;18549;42.286;22.688;2022-09-11T02:55:36;6.15;;;2.53;;
32038;SDS011;18549;42.286;22.688;2022-09-11T02:58:15;8.50;;;1.85;;
32038;SDS011;18549;42.286;22.688;2022-09-11T03:00:49;5.62;;;2.10;;
32038;SDS011;18549;42.286;22.688;2022-09-11T03:03:17;5.00;;;2.12;;
32038;SDS011;18549;42.286;22.688;2022-09-11T03:05:45;10.10;;;2.55;;
32038;SDS011;18549;42.286;22.688;2022-09-11T03:08:13;11.63;;;3.10;;
32038;SDS011;18549;42.286;22.688;2022-09-11T03:10:42;8.75;;;3.33;;
32038;SDS011;18549;42.286;22.688;2022-09-11T03:13:11;8.00;;;2.90;;
32038;SDS011;18549;42.286;22.688;2022-09-11T03:15:39;5.90;;;2.85;;
32038;SDS011;18549;42.286;22.688;2022-09-11T03:18:09;15.32;;;4.25;;
32038;SDS011;18549;42.286;22.688;2022-09-11T03:20:37;6.12;;;2.70;;
32038;SDS011;18549;42.286;22.688;2022-09-11T03:23:05;6.05;;;3.17;;
32038;SDS011;18549;42.286;22.688;2022-09-11T03:25:34;4.93;;;3.70;;
32038;SDS011;18549;42.286;22.688;2022-09-11T03:28:02;8.13;;;3.80;;
32038;SDS011;18549;42.286;22.688;2022-09-11T03:30:29;5.47;;;2.85;;
32038;SDS011;18549;42.286;22.688;2022-09-11T03:32:58;7.05;;;2.58;;
32038;SDS011;18549;42.286;22.688;2022-09-11T03:35:27;6.60;;;2.65;;
32038;SDS011;18549;42.286;22.688;2022-09-11T03:37:56;8.00;;;3.05;;
32038;SDS011;18549;42.286;22.688;2022-09-11T03:40:26;7.12;;;2.65;;
32038;SDS011;18549;42.286;22.688;2022-09-11T03:42:54;7.25;;;2.95;;
32038;SDS011;18549;42.286;22.688;2022-09-11T03:45:21;5.15;;;2.92;;
32038;SDS011;18549;42.286;22.688;2022-09-11T03:47:49;10.93;;;3.17;;
32038;SDS011;18549;42.286;22.688;2022-09-11T03:50:18;6.97;;;3.17;;
32038;SDS011;18549;42.286;22.688;2022-09-11T03:52:46;8.30;;;3.67;;
32038;SDS011;18549;42.286;22.688;2022-09-11T03:55:14;6.25;;;3.28;;
32038;SDS011;18549;42.286;22.688;2022-09-11T03:57:42;5.78;;;2.65;;
32038;SDS011;18549;42.286;22.688;2022-09-11T04:00:10;7.03;;;3.50;;
32038;SDS011;18549;42.286;22.688;2022-09-11T04:02:38;9.20;;;4.00;;
32038;SDS011;18549;42.286;22.688;2022-09-11T04:05:06;9.65;;;3.67;;
32038;SDS011;18549;42.286;22.688;2022-09-11T04:07:34;11.68;;;3.50;;
32038;SDS011;18549;42.286;22.688;2022-09-11T04:10:04;6.68;;;2.40;;
32038;SDS011;18549;42.286;22.688;2022-09-11T04:12:32;9.10;;;3.28;;
32038;SDS011;18549;42.286;22.688;2022-09-11T04:14:59;9.30;;;3.90;;
32038;SDS011;18549;42.286;22.688;2022-09-11T04:17:28;5.47;;;3.28;;
32038;SDS011;18549;42.286;22.688;2022-09-11T04:19:56;12.32;;;3.10;;
32038;SDS011;18549;42.286;22.688;2022-09-11T04:22:23;4.75;;;3.08;;
32038;SDS011;18549;42.286;22.688;2022-09-11T04:24:51;6.35;;;3.62;;
32038;SDS011;18549;42.286;22.688;2022-09-11T04:27:20;8.23;;;4.37;;
32038;SDS011;18549;42.286;22.688;2022-09-11T04:29:48;9.25;;;4.15;;
32038;SDS011;18549;42.286;22.688;2022-09-11T04:32:16;10.60;;;3.10;;
32038;SDS011;18549;42.286;22.688;2022-09-11T04:34:43;16.62;;;4.18;;
32038;SDS011;18549;42.286;22.688;2022-09-11T04:37:11;15.85;;;4.03;;
32038;SDS011;18549;42.286;22.688;2022-09-11T04:39:39;5.05;;;3.45;;
32038;SDS011;18549;42.286;22.688;2022-09-11T04:42:06;5.53;;;3.50;;
32038;SDS011;18549;42.286;22.688;2022-09-11T04:44:36;9.52;;;3.90;;
32038;SDS011;18549;42.286;22.688;2022-09-11T04:47:03;4.62;;;3.45;;
32038;SDS011;18549;42.286;22.688;2022-09-11T04:49:31;4.45;;;2.85;;
32038;SDS011;18549;42.286;22.688;2022-09-11T04:51:59;5.82;;;3.80;;
32038;SDS011;18549;42.286;22.688;2022-09-11T04:54:30;8.45;;;3.75;;
32038;SDS011;18549;42.286;22.688;2022-09-11T04:57:01;6.25;;;3.12;;
32038;SDS011;18549;42.286;22.688;2022-09-11T04:59:29;6.57;;;3.95;;
32038;SDS011;18549;42.286;22.688;2022-09-11T05:01:58;6.65;;;3.60;;
32038;SDS011;18549;42.286;22.688;2022-09-11T05:04:25;4.90;;;3.03;;
32038;SDS011;18549;42.286;22.688;2022-09-11T05:06:53;7.45;;;3.47;;
32038;SDS011;18549;42.286;22.688;2022-09-11T05:09:21;9.30;;;3.60;;
32038;SDS011;18549;42.286;22.688;2022-09-11T05:11:48;6.72;;;3.65;;
32038;SDS011;18549;42.286;22.688;2022-09-11T05:14:16;8.70;;;3.75;;
32038;SDS011;18549;42.286;22.688;2022-09-11T05:16:43;11.85;;;4.25;;
32038;SDS011;18549;42.286;22.688;2022-09-11T05:19:12;11.35;;;5.20;;
32038;SDS011;18549;42.286;22.688;2022-09-11T05:21:40;24.55;;;7.20;;
32038;SDS011;18549;42.286;22.688;2022-09-11T05:24:07;11.45;;;5.22;;
32038;SDS011;18549;42.286;22.688;2022-09-11T05:26:36;42.53;;;6.75;;
32038;SDS011;18549;42.286;22.688;2022-09-11T05:29:04;15.88;;;3.87;;
32038;SDS011;18549;42.286;22.688;2022-09-11T05:31:33;16.60;;;4.45;;
32038;SDS011;18549;42.286;22.688;2022-09-11T05:34:02;18.48;;;4.60;;
32038;SDS011;18549;42.286;22.688;2022-09-11T05:36:31;11.27;;;4.07;;
32038;SDS011;18549;42.286;22.688;2022-09-11T05:38:59;7.40;;;3.55;;
32038;SDS011;18549;42.286;22.688;2022-09-11T05:41:29;11.93;;;4.53;;
32038;SDS011;18549;42.286;22.688;2022-09-11T05:43:56;9.80;;;4.60;;
32038;SDS011;18549;42.286;22.688;2022-09-11T05:46:24;9.52;;;3.97;;
32038;SDS011;18549;42.286;22.688;2022-09-11T05:48:52;10.82;;;4.75;;
32038;SDS011;18549;42.286;22.688;2022-09-11T05:51:19;7.12;;;3.95;;
32038;SDS011;18549;42.286;22.688;2022-09-11T05:53:50;7.72;;;4.35;;
32038;SDS011;18549;42.286;22.688;2022-09-11T05:56:19;12.63;;;4.72;;
32038;SDS011;18549;42.286;22.688;2022-09-11T05:58:48;10.13;;;4.37;;
32038;SDS011;18549;42.286;22.688;2022-09-11T06:01:18;14.18;;;4.90;;
32038;SDS011;18549;42.286;22.688;2022-09-11T06:03:46;10.70;;;4.75;;
32038;SDS011;18549;42.286;22.688;2022-09-11T06:06:15;13.82;;;4.03;;
32038;SDS011;18549;42.286;22.688;2022-09-11T06:08:45;9.65;;;4.95;;
32038;SDS011;18549;42.286;22.688;2022-09-11T06:11:16;18.33;;;5.07;;
32038;SDS011;18549;42.286;22.688;2022-09-11T06:13:45;15.25;;;4.62;;
32038;SDS011;18549;42.286;22.688;2022-09-11T06:16:14;6.35;;;3.97;;
32038;SDS011;18549;42.286;22.688;2022-09-11T06:18:43;7.90;;;4.03;;
32038;SDS011;18549;42.286;22.688;2022-09-11T06:21:13;10.90;;;4.75;;
32038;SDS011;18549;42.286;22.688;2022-09-11T06:23:43;9.27;;;3.70;;
32038;SDS011;18549;42.286;22.688;2022-09-11T06:26:11;9.10;;;4.43;;
32038;SDS011;18549;42.286;22.688;2022-09-11T06:28:41;14.85;;;3.30;;
32038;SDS011;18549;42.286;22.688;2022-09-11T06:31:10;8.88;;;3.87;;
32038;SDS011;18549;42.286;22.688;2022-09-11T06:33:40;10.45;;;4.03;;
32038;SDS011;18549;42.286;22.688;2022-09-11T06:36:09;10.68;;;3.90;;
32038;SDS011;18549;42.286;22.688;2022-09-11T06:38:37;8.43;;;3.95;;
32038;SDS011;18549;42.286;22.688;2022-09-11T06:41:06;5.53;;;3.80;;
32038;SDS011;18549;42.286;22.688;2022-09-11T06:43:34;11.60;;;4.50;;
32038;SDS011;18549;42.286;22.688;2022-09-11T06:46:04;7.37;;;3.95;;
32038;SDS011;18549;42.286;22.688;2022-09-11T06:48:32;6.20;;;4.07;;
32038;SDS011;18549;42.286;22.688;2022-09-11T06:51:03;9.85;;;4.03;;
32038;SDS011;18549;42.286;22.688;2022-09-11T06:53:32;9.05;;;4.00;;
32038;SDS011;18549;42.286;22.688;2022-09-11T06:56:00;9.85;;;3.50;;
32038;SDS011;18549;42.286;22.688;2022-09-11T06:58:28;9.07;;;4.72;;
32038;SDS011;18549;42.286;22.688;2022-09-11T07:01:00;8.73;;;3.80;;
32038;SDS011;18549;42.286;22.688;2022-09-11T07:03:30;7.50;;;4.00;;
32038;SDS011;18549;42.286;22.688;2022-09-11T07:05:58;8.88;;;3.53;;
32038;SDS011;18549;42.286;22.688;2022-09-11T07:08:26;14.75;;;4.15;;
32038;SDS011;18549;42.286;22.688;2022-09-11T07:10:54;5.60;;;3.22;;
32038;SDS011;18549;42.286;22.688;2022-09-11T07:13:28;11.93;;;3.83;;
32038;SDS011;18549;42.286;22.688;2022-09-11T07:15:58;4.53;;;2.97;;
32038;SDS011;18549;42.286;22.688;2022-09-11T07:18:32;12.10;;;3.87;;
32038;SDS011;18549;42.286;22.688;2022-09-11T07:21:03;8.45;;;4.25;;
32038;SDS011;18549;42.286;22.688;2022-09-11T07:23:31;13.57;;;3.97;;
32038;SDS011;18549;42.286;22.688;2022-09-11T07:26:02;12.18;;;3.90;;
32038;SDS011;18549;42.286;22.688;2022-09-11T07:28:31;7.53;;;3.65;;
32038;SDS011;18549;42.286;22.688;2022-09-11T07:31:05;7.87;;;3.60;;
32038;SDS011;18549;42.286;22.688;2022-09-11T07:33:36;7.07;;;4.20;;
32038;SDS011;18549;42.286;22.688;2022-09-11T07:36:07;8.02;;;3.65;;
32038;SDS011;18549;42.286;22.688;2022-09-11T07:38:37;11.52;;;3.80;;
32038;SDS011;18549;42.286;22.688;2022-09-11T07:41:05;9.20;;;3.45;;
32038;SDS011;18549;42.286;22.688;2022-09-11T07:43:34;7.75;;;3.55;;
32038;SDS011;18549;42.286;22.688;2022-09-11T07:46:04;6.28;;;3.45;;
32038;SDS011;18549;42.286;22.688;2022-09-11T07:48:32;6.10;;;3.12;;
32038;SDS011;18549;42.286;22.688;2022-09-11T07:51:05;8.05;;;3.33;;
32038;SDS011;18549;42.286;22.688;2022-09-11T07:53:35;13.05;;;3.15;;
32038;SDS011;18549;42.286;22.688;2022-09-11T07:56:05;10.98;;;3.22;;
32038;SDS011;18549;42.286;22.688;2022-09-11T07:58:34;5.10;;;2.92;;
32038;SDS011;18549;42.286;22.688;2022-09-11T08:01:03;7.90;;;3.35;;
32038;SDS011;18549;42.286;22.688;2022-09-11T08:03:31;7.35;;;3.62;;
32038;SDS011;18549;42.286;22.688;2022-09-11T08:05:59;13.52;;;2.75;;
32038;SDS011;18549;42.286;22.688;2022-09-11T08:08:29;4.28;;;3.30;;
32038;SDS011;18549;42.286;22.688;2022-09-11T08:11:00;10.20;;;3.28;;
32038;SDS011;18549;42.286;22.688;2022-09-11T08:13:29;6.65;;;3.83;;
32038;SDS011;18549;42.286;22.688;2022-09-11T08:15:57;11.55;;;3.30;;
32038;SDS011;18549;42.286;22.688;2022-09-11T08:18:26;8.32;;;3.42;;
32038;SDS011;18549;42.286;22.688;2022-09-11T08:20:59;8.88;;;3.08;;
32038;SDS011;18549;42.286;22.688;2022-09-11T08:23:29;13.23;;;3.00;;
32038;SDS011;18549;42.286;22.688;2022-09-11T08:26:02;4.68;;;2.75;;
32038;SDS011;18549;42.286;22.688;2022-09-11T08:28:31;4.53;;;2.92;;
32038;SDS011;18549;42.286;22.688;2022-09-11T08:31:00;8.23;;;3.65;;
32038;SDS011;18549;42.286;22.688;2022-09-11T08:33:27;8.95;;;3.35;;
32038;SDS011;18549;42.286;22.688;2022-09-11T08:35:56;5.95;;;3.53;;
32038;SDS011;18549;42.286;22.688;2022-09-11T08:38:24;7.12;;;3.15;;
32038;SDS011;18549;42.286;22.688;2022-09-11T08:40:54;4.78;;;3.17;;
32038;SDS011;18549;42.286;22.688;2022-09-11T08:43:24;4.87;;;2.90;;
32038;SDS011;18549;42.286;22.688;2022-09-11T08:45:56;7.22;;;3.22;;
32038;SDS011;18549;42.286;22.688;2022-09-11T08:48:28;4.03;;;2.45;;
32038;SDS011;18549;42.286;22.688;2022-09-11T08:51:01;8.70;;;2.70;;
32038;SDS011;18549;42.286;22.688;2022-09-11T08:53:29;3.83;;;2.25;;
32038;SDS011;18549;42.286;22.688;2022-09-11T08:56:01;6.93;;;3.20;;
32038;SDS011;18549;42.286;22.688;2022-09-11T08:58:35;4.05;;;2.20;;
32038;SDS011;18549;42.286;22.688;2022-09-11T09:01:17;5.87;;;3.20;;
32038;SDS011;18549;42.286;22.688;2022-09-11T09:03:56;4.50;;;3.25;;
32038;SDS011;18549;42.286;22.688;2022-09-11T09:06:46;6.80;;;2.80;;
32038;SDS011;18549;42.286;22.688;2022-09-11T09:09:24;3.60;;;1.98;;
32038;SDS011;18549;42.286;22.688;2022-09-11T09:11:58;5.85;;;2.37;;
32038;SDS011;18549;42.286;22.688;2022-09-11T09:17:26;6.45;;;2.50;;
32038;SDS011;18549;42.286;22.688;2022-09-11T09:19:58;3.58;;;2.12;;
32038;SDS011;18549;42.286;22.688;2022-09-11T09:22:33;6.80;;;3.05;;
32038;SDS011;18549;42.286;22.688;2022-09-11T09:25:06;6.55;;;1.92;;
32038;SDS011;18549;42.286;22.688;2022-09-11T09:27:41;4.00;;;2.10;;
32038;SDS011;18549;42.286;22.688;2022-09-11T09:30:13;3.47;;;1.98;;
32038;SDS011;18549;42.286;22.688;2022-09-11T09:32:43;3.03;;;2.08;;
32038;SDS011;18549;42.286;22.688;2022-09-11T09:35:17;3.55;;;2.00;;
32038;SDS011;18549;42.286;22.688;2022-09-11T09:37:47;3.25;;;2.33;;
32038;SDS011;18549;42.286;22.688;2022-09-11T09:40:15;2.83;;;2.05;;
32038;SDS011;18549;42.286;22.688;2022-09-11T09:42:58;4.78;;;2.42;;
32038;SDS011;18549;42.286;22.688;2022-09-11T09:45:38;4.35;;;2.10;;
32038;SDS011;18549;42.286;22.688;2022-09-11T09:48:12;5.25;;;3.03;;
32038;SDS011;18549;42.286;22.688;2022-09-11T09:50:40;7.15;;;2.40;;
32038;SDS011;18549;42.286;22.688;2022-09-11T09:53:12;4.95;;;2.35;;
32038;SDS011;18549;42.286;22.688;2022-09-11T09:55:45;8.63;;;2.20;;
32038;SDS011;18549;42.286;22.688;2022-09-11T09:58:16;4.25;;;2.20;;
32038;SDS011;18549;42.286;22.688;2022-09-11T10:00:44;6.75;;;1.98;;
32038;SDS011;18549;42.286;22.688;2022-09-11T10:03:16;3.97;;;2.20;;
32038;SDS011;18549;42.286;22.688;2022-09-11T10:05:45;6.43;;;1.73;;
32038;SDS011;18549;42.286;22.688;2022-09-11T10:08:29;6.68;;;2.33;;
32038;SDS011;18549;42.286;22.688;2022-09-11T10:10:59;4.18;;;1.90;;
32038;SDS011;18549;42.286;22.688;2022-09-11T10:13:30;5.50;;;2.28;;
32038;SDS011;18549;42.286;22.688;2022-09-11T10:15:59;5.55;;;2.50;;
32038;SDS011;18549;42.286;22.688;2022-09-11T10:18:32;2.97;;;2.10;;
32038;SDS011;18549;42.286;22.688;2022-09-11T10:21:13;3.50;;;1.95;;
32038;SDS011;18549;42.286;22.688;2022-09-11T10:23:47;3.55;;;1.85;;
32038;SDS011;18549;42.286;22.688;2022-09-11T10:26:17;9.88;;;2.70;;
32038;SDS011;18549;42.286;22.688;2022-09-11T10:28:50;6.30;;;2.50;;
32038;SDS011;18549;42.286;22.688;2022-09-11T10:31:19;5.50;;;2.60;;
32038;SDS011;18549;42.286;22.688;2022-09-11T10:33:48;4.28;;;2.05;;
32038;SDS011;18549;42.286;22.688;2022-09-11T10:36:23;4.47;;;2.80;;
32038;SDS011;18549;42.286;22.688;2022-09-11T10:38:53;3.60;;;2.17;;
32038;SDS011;18549;42.286;22.688;2022-09-11T10:41:23;8.23;;;2.45;;
32038;SDS011;18549;42.286;22.688;2022-09-11T10:43:54;3.45;;;1.90;;
32038;SDS011;18549;42.286;22.688;2022-09-11T10:46:29;7.43;;;2.78;;
32038;SDS011;18549;42.286;22.688;2022-09-11T10:49:05;7.50;;;2.87;;
32038;SDS011;18549;42.286;22.688;2022-09-11T10:51:35;3.42;;;2.10;;
32038;SDS011;18549;42.286;22.688;2022-09-11T10:54:07;5.10;;;2.40;;
32038;SDS011;18549;42.286;22.688;2022-09-11T10:56:51;4.20;;;2.65;;
32038;SDS011;18549;42.286;22.688;2022-09-11T10:59:31;4.78;;;2.45;;
32038;SDS011;18549;42.286;22.688;2022-09-11T11:02:09;5.35;;;2.83;;
32038;SDS011;18549;42.286;22.688;2022-09-11T11:04:46;6.80;;;2.40;;
32038;SDS011;18549;42.286;22.688;2022-09-11T11:07:19;4.45;;;2.65;;
32038;SDS011;18549;42.286;22.688;2022-09-11T11:10:02;3.45;;;2.28;;
32038;SDS011;18549;42.286;22.688;2022-09-11T11:12:41;6.37;;;2.08;;
32038;SDS011;18549;42.286;22.688;2022-09-11T11:15:21;2.80;;;1.83;;
32038;SDS011;18549;42.286;22.688;2022-09-11T11:18:01;6.72;;;2.40;;
32038;SDS011;18549;42.286;22.688;2022-09-11T11:20:43;10.35;;;2.60;;
32038;SDS011;18549;42.286;22.688;2022-09-11T11:23:39;3.30;;;2.62;;
32038;SDS011;18549;42.286;22.688;2022-09-11T11:26:24;8.15;;;2.42;;
32038;SDS011;18549;42.286;22.688;2022-09-11T11:29:25;6.57;;;2.65;;
32038;SDS011;18549;42.286;22.688;2022-09-11T11:32:26;4.65;;;2.37;;
32038;SDS011;18549;42.286;22.688;2022-09-11T11:35:10;3.10;;;2.05;;
32038;SDS011;18549;42.286;22.688;2022-09-11T11:37:47;5.05;;;1.92;;
32038;SDS011;18549;42.286;22.688;2022-09-11T11:40:17;5.93;;;2.22;;
32038;SDS011;18549;42.286;22.688;2022-09-11T11:42:53;5.55;;;2.25;;
32038;SDS011;18549;42.286;22.688;2022-09-11T11:45:26;11.02;;;2.87;;
32038;SDS011;18549;42.286;22.688;2022-09-11T11:47:59;3.72;;;2.30;;
32038;SDS011;18549;42.286;22.688;2022-09-11T11:50:32;6.43;;;2.22;;
32038;SDS011;18549;42.286;22.688;2022-09-11T11:53:08;3.95;;;1.73;;
32038;SDS011;18549;42.286;22.688;2022-09-11T11:55:41;4.05;;;2.17;;
32038;SDS011;18549;42.286;22.688;2022-09-11T11:58:17;3.72;;;1.92;;
32038;SDS011;18549;42.286;22.688;2022-09-11T12:00:53;4.85;;;2.10;;
32038;SDS011;18549;42.286;22.688;2022-09-11T12:03:29;7.40;;;2.22;;
32038;SDS011;18549;42.286;22.688;2022-09-11T12:06:03;6.82;;;1.83;;
32038;SDS011;18549;42.286;22.688;2022-09-11T12:08:32;4.80;;;2.00;;
32038;SDS011;18549;42.286;22.688;2022-09-11T12:11:05;2.50;;;1.40;;
32038;SDS011;18549;42.286;22.688;2022-09-11T12:13:34;3.17;;;1.40;;
32038;SDS011;18549;42.286;22.688;2022-09-11T12:16:10;6.25;;;1.95;;
32038;SDS011;18549;42.286;22.688;2022-09-11T12:18:43;3.97;;;2.20;;
32038;SDS011;18549;42.286;22.688;2022-09-11T12:21:39;5.97;;;2.15;;
32038;SDS011;18549;42.286;22.688;2022-09-11T12:24:10;3.47;;;1.92;;
32038;SDS011;18549;42.286;22.688;2022-09-11T12:26:42;6.10;;;2.37;;
32038;SDS011;18549;42.286;22.688;2022-09-11T12:32:21;4.37;;;1.92;;
32038;SDS011;18549;42.286;22.688;2022-09-11T12:35:15;4.18;;;1.98;;
32038;SDS011;18549;42.286;22.688;2022-09-11T12:37:46;3.75;;;1.92;;
32038;SDS011;18549;42.286;22.688;2022-09-11T12:40:22;3.65;;;1.85;;
32038;SDS011;18549;42.286;22.688;2022-09-11T12:42:58;3.17;;;1.73;;
32038;SDS011;18549;42.286;22.688;2022-09-11T12:45:42;3.37;;;1.80;;
32038;SDS011;18549;42.286;22.688;2022-09-11T12:48:12;3.60;;;1.85;;
32038;SDS011;18549;42.286;22.688;2022-09-11T12:50:49;3.00;;;1.60;;
32038;SDS011;18549;42.286;22.688;2022-09-11T12:53:20;5.03;;;1.80;;
32038;SDS011;18549;42.286;22.688;2022-09-11T12:55:58;3.97;;;1.67;;
32038;SDS011;18549;42.286;22.688;2022-09-11T12:58:31;3.45;;;1.58;;
32038;SDS011;18549;42.286;22.688;2022-09-11T13:01:10;6.03;;;1.65;;
32038;SDS011;18549;42.286;22.688;2022-09-11T13:03:47;8.75;;;1.98;;
32038;SDS011;18549;42.286;22.688;2022-09-11T13:06:24;3.65;;;1.60;;
32038;SDS011;18549;42.286;22.688;2022-09-11T13:09:03;4.62;;;1.62;;
32038;SDS011;18549;42.286;22.688;2022-09-11T13:11:33;3.40;;;1.62;;
32038;SDS011;18549;42.286;22.688;2022-09-11T13:14:21;2.47;;;1.65;;
32038;SDS011;18549;42.286;22.688;2022-09-11T13:17:13;2.45;;;1.52;;
32038;SDS011;18549;42.286;22.688;2022-09-11T13:19:43;7.37;;;1.85;;
32038;SDS011;18549;42.286;22.688;2022-09-11T13:22:23;4.57;;;1.42;;
32038;SDS011;18549;42.286;22.688;2022-09-11T13:25:02;4.95;;;1.77;;
32038;SDS011;18549;42.286;22.688;2022-09-11T13:27:31;5.57;;;2.28;;
32038;SDS011;18549;42.286;22.688;2022-09-11T13:30:02;6.28;;;2.15;;
32038;SDS011;18549;42.286;22.688;2022-09-11T13:32:31;4.90;;;1.48;;
32038;SDS011;18549;42.286;22.688;2022-09-11T13:35:02;4.90;;;1.52;;
32038;SDS011;18549;42.286;22.688;2022-09-11T13:37:36;4.65;;;1.52;;
32038;SDS011;18549;42.286;22.688;2022-09-11T13:40:13;5.90;;;2.00;;
32038;SDS011;18549;42.286;22.688;2022-09-11T13:42:47;3.65;;;1.70;;
32038;SDS011;18549;42.286;22.688;2022-09-11T13:45:15;5.78;;;2.30;;
32038;SDS011;18549;42.286;22.688;2022-09-11T13:47:44;3.60;;;1.90;;
32038;SDS011;18549;42.286;22.688;2022-09-11T13:50:12;4.78;;;1.90;;
32038;SDS011;18549;42.286;22.688;2022-09-11T13:52:46;5.10;;;1.95;;
32038;SDS011;18549;42.286;22.688;2022-09-11T13:55:15;4.93;;;1.80;;
32038;SDS011;18549;42.286;22.688;2022-09-11T13:57:54;4.70;;;2.12;;
32038;SDS011;18549;42.286;22.688;2022-09-11T14:00:38;2.67;;;1.67;;
32038;SDS011;18549;42.286;22.688;2022-09-11T14:03:14;4.10;;;2.17;;
32038;SDS011;18549;42.286;22.688;2022-09-11T14:05:46;4.35;;;1.80;;
32038;SDS011;18549;42.286;22.688;2022-09-11T14:08:27;3.30;;;1.83;;
32038;SDS011;18549;42.286;22.688;2022-09-11T14:10:59;7.53;;;1.70;;
32038;SDS011;18549;42.286;22.688;2022-09-11T14:13:31;5.65;;;1.75;;
32038;SDS011;18549;42.286;22.688;2022-09-11T14:16:02;8.18;;;1.95;;
32038;SDS011;18549;42.286;22.688;2022-09-11T14:18:33;3.70;;;1.90;;
32038;SDS011;18549;42.286;22.688;2022-09-11T14:21:10;8.82;;;1.90;;
32038;SDS011;18549;42.286;22.688;2022-09-11T14:23:42;3.33;;;1.73;;
32038;SDS011;18549;42.286;22.688;2022-09-11T14:26:14;4.68;;;1.92;;
32038;SDS011;18549;42.286;22.688;2022-09-11T14:28:44;6.97;;;2.03;;
32038;SDS011;18549;42.286;22.688;2022-09-11T14:31:25;5.87;;;2.30;;
32038;SDS011;18549;42.286;22.688;2022-09-11T14:34:11;6.05;;;2.37;;
32038;SDS011;18549;42.286;22.688;2022-09-11T14:36:41;7.18;;;2.78;;
32038;SDS011;18549;42.286;22.688;2022-09-11T14:39:14;5.37;;;3.05;;
32038;SDS011;18549;42.286;22.688;2022-09-11T14:41:49;6.10;;;4.05;;
32038;SDS011;18549;42.286;22.688;2022-09-11T14:44:17;12.93;;;4.85;;
32038;SDS011;18549;42.286;22.688;2022-09-11T14:46:46;7.43;;;4.75;;
32038;SDS011;18549;42.286;22.688;2022-09-11T14:49:14;14.13;;;5.10;;
32038;SDS011;18549;42.286;22.688;2022-09-11T14:51:41;6.55;;;4.75;;
32038;SDS011;18549;42.286;22.688;2022-09-11T14:54:11;9.02;;;4.45;;
32038;SDS011;18549;42.286;22.688;2022-09-11T14:56:42;5.32;;;3.50;;
32038;SDS011;18549;42.286;22.688;2022-09-11T14:59:11;6.72;;;3.58;;
32038;SDS011;18549;42.286;22.688;2022-09-11T15:01:39;6.60;;;3.92;;
32038;SDS011;18549;42.286;22.688;2022-09-11T15:04:08;7.53;;;3.85;;
32038;SDS011;18549;42.286;22.688;2022-09-11T15:06:41;3.75;;;3.15;;
32038;SDS011;18549;42.286;22.688;2022-09-11T15:09:08;5.75;;;4.12;;
32038;SDS011;18549;42.286;22.688;2022-09-11T15:11:37;7.70;;;4.20;;
32038;SDS011;18549;42.286;22.688;2022-09-11T15:14:05;9.38;;;4.47;;
32038;SDS011;18549;42.286;22.688;2022-09-11T15:16:33;4.45;;;3.90;;